Time;durP1;ratioP1;P1;durP2;ratioP2;P2;SDS_P1;SDS_P2;PMS_P1;PMS_P2;Temp;Humidity;BMP_temperature;BMP_pressure;BME280_temperature;BME280_humidity;BME280_pressure;Samples;Min_cycle;Max_cycle;Signal;HPM_P1;HPM_P2
2021/08/31 00:00:14;;;;;;;21.10;12.32;;;15.00;99.90;;;;;;5091840;28;20071;-63
2021/08/31 00:02:40;;;;;;;18.05;10.85;;;14.90;99.90;;;;;;5077670;28;20049;-63
2021/08/31 00:05:07;;;;;;;14.82;11.18;;;14.90;99.90;;;;;;5081814;28;20051;-63
2021/08/31 00:07:33;;;;;;;18.70;11.75;;;14.90;99.90;;;;;;5084100;28;20056;-63
2021/08/31 00:09:59;;;;;;;20.75;11.75;;;14.80;99.90;;;;;;5066758;28;20044;-63
2021/08/31 00:12:24;;;;;;;20.90;12.30;;;14.80;99.90;;;;;;5084528;28;20071;-63
2021/08/31 00:14:50;;;;;;;15.40;11.35;;;14.80;99.90;;;;;;5084570;28;20404;-63
2021/08/31 00:17:17;;;;;;;18.75;11.27;;;14.80;99.90;;;;;;5084963;28;20048;-63
2021/08/31 00:19:46;;;;;;;17.23;11.70;;;14.70;99.90;;;;;;5084834;28;20045;-63
2021/08/31 00:22:12;;;;;;;16.95;11.52;;;14.60;99.90;;;;;;5083639;28;20389;-63
2021/08/31 00:24:40;;;;;;;22.75;11.60;;;14.60;99.90;;;;;;5084724;28;20075;-63
2021/08/31 00:27:06;;;;;;;19.90;11.63;;;14.50;99.90;;;;;;5085009;28;20040;-62
2021/08/31 00:29:32;;;;;;;22.08;11.95;;;14.50;99.90;;;;;;5074313;28;20045;-63
2021/08/31 00:31:58;;;;;;;16.88;11.30;;;14.50;99.90;;;;;;5081440;28;20059;-63
2021/08/31 00:34:23;;;;;;;19.42;11.80;;;14.40;99.90;;;;;;5073587;28;20489;-63
2021/08/31 00:36:50;;;;;;;20.42;11.57;;;14.40;99.90;;;;;;5081338;28;20044;-65
2021/08/31 00:39:16;;;;;;;17.58;11.18;;;14.50;99.90;;;;;;5084370;28;20048;-63
2021/08/31 00:41:42;;;;;;;21.95;11.45;;;14.50;99.90;;;;;;5084526;28;20048;-63
2021/08/31 00:44:23;;;;;;;24.88;11.98;;;14.60;99.90;;;;;;5082388;28;20428;-63
2021/08/31 00:46:50;;;;;;;15.93;11.48;;;14.60;99.90;;;;;;5085148;28;20096;-63
2021/08/31 00:49:17;;;;;;;22.38;12.07;;;14.60;99.90;;;;;;5083677;28;20052;-63
2021/08/31 00:51:43;;;;;;;18.50;11.52;;;14.70;99.90;;;;;;5083481;28;20058;-63
2021/08/31 00:54:09;;;;;;;17.27;11.73;;;14.70;99.90;;;;;;5083919;28;20071;-63
2021/08/31 00:56:35;;;;;;;20.55;12.05;;;14.70;99.90;;;;;;5084117;28;20123;-63
2021/08/31 00:59:01;;;;;;;24.15;11.63;;;14.70;99.90;;;;;;5083124;28;20484;-63
2021/08/31 01:01:28;;;;;;;20.27;11.50;;;14.70;99.90;;;;;;5086629;28;20110;-63
2021/08/31 01:03:53;;;;;;;18.83;10.95;;;14.70;99.90;;;;;;5089125;28;20051;-63
2021/08/31 01:06:19;;;;;;;18.95;10.40;;;14.60;99.90;;;;;;5091425;28;20032;-63
2021/08/31 01:08:45;;;;;;;17.80;11.05;;;14.60;99.90;;;;;;5091316;28;20096;-63
2021/08/31 01:11:11;;;;;;;15.52;9.90;;;14.60;99.90;;;;;;5089593;28;20059;-63
2021/08/31 01:13:38;;;;;;;19.45;10.18;;;14.60;99.90;;;;;;5090971;28;20040;-64
2021/08/31 01:16:05;;;;;;;17.48;10.40;;;14.60;99.90;;;;;;5090001;28;20053;-63
2021/08/31 01:18:31;;;;;;;20.83;10.75;;;14.60;99.90;;;;;;5091472;28;20052;-63
2021/08/31 01:20:59;;;;;;;19.08;10.75;;;14.50;99.90;;;;;;5089417;28;20045;-63
2021/08/31 01:23:26;;;;;;;17.23;9.63;;;14.50;99.90;;;;;;5090327;28;20048;-63
2021/08/31 01:25:55;;;;;;;19.30;11.77;;;14.60;99.90;;;;;;5087581;28;20067;-63
2021/08/31 01:28:24;;;;;;;13.95;9.43;;;14.50;99.90;;;;;;5079395;28;20048;-63
2021/08/31 01:30:54;;;;;;;18.23;10.50;;;14.50;99.90;;;;;;5089323;28;20527;-63
2021/08/31 01:33:24;;;;;;;20.88;11.35;;;14.50;99.90;;;;;;5089389;28;20040;-63
2021/08/31 01:35:50;;;;;;;16.92;10.30;;;14.50;99.90;;;;;;5090257;28;20381;-63
2021/08/31 01:38:16;;;;;;;17.38;9.90;;;14.50;99.90;;;;;;5089409;28;20082;-63
2021/08/31 01:40:42;;;;;;;18.70;10.30;;;14.50;99.90;;;;;;5088870;28;20044;-64
2021/08/31 01:43:07;;;;;;;18.63;9.52;;;14.50;99.90;;;;;;5080220;28;20094;-63
2021/08/31 01:45:47;;;;;;;14.70;7.95;;;14.40;99.90;;;;;;5089454;28;20071;-63
2021/08/31 01:48:13;;;;;;;18.83;9.57;;;14.40;99.90;;;;;;5089599;28;20052;-63
2021/08/31 01:50:39;;;;;;;15.73;9.55;;;14.40;99.90;;;;;;5092068;28;20040;-63
2021/08/31 01:53:05;;;;;;;16.92;10.13;;;14.40;99.90;;;;;;5091180;28;20052;-63
2021/08/31 01:55:32;;;;;;;18.83;9.52;;;14.40;99.90;;;;;;5089254;28;20049;-63
2021/08/31 01:57:59;;;;;;;16.50;8.98;;;14.40;99.90;;;;;;5089241;28;20102;-63
2021/08/31 02:00:25;;;;;;;16.70;9.60;;;14.30;99.90;;;;;;5089179;28;20550;-63
2021/08/31 02:02:52;;;;;;;21.92;9.27;;;14.30;99.90;;;;;;5089746;28;20052;-63
2021/08/31 02:05:18;;;;;;;15.60;8.90;;;14.30;99.90;;;;;;5088917;28;20052;-63
2021/08/31 02:07:43;;;;;;;15.95;9.02;;;14.30;99.90;;;;;;5089712;28;20066;-63
2021/08/31 02:10:10;;;;;;;16.13;9.25;;;14.20;99.90;;;;;;5089934;28;20040;-63
2021/08/31 02:12:35;;;;;;;17.52;9.18;;;14.30;99.90;;;;;;5073216;28;20044;-63
2021/08/31 02:15:01;;;;;;;20.70;9.60;;;14.30;99.90;;;;;;5086273;28;20044;-63
2021/08/31 02:17:27;;;;;;;18.65;9.85;;;14.30;99.90;;;;;;5087037;28;20045;-63
2021/08/31 02:19:52;;;;;;;18.38;10.27;;;14.20;99.90;;;;;;5087490;28;20100;-63
2021/08/31 02:22:18;;;;;;;20.85;10.23;;;14.30;99.90;;;;;;5072417;28;20056;-63
2021/08/31 02:24:44;;;;;;;16.33;9.85;;;14.20;99.90;;;;;;5086274;28;20063;-63
2021/08/31 02:27:10;;;;;;;15.88;10.40;;;14.20;99.90;;;;;;5067614;28;20041;-63
2021/08/31 02:29:35;;;;;;;19.73;11.00;;;14.20;99.90;;;;;;5079295;28;20044;-63
2021/08/31 02:32:03;;;;;;;20.30;10.75;;;14.10;99.90;;;;;;5085919;28;20056;-63
2021/08/31 02:34:29;;;;;;;19.23;10.13;;;14.10;99.90;;;;;;5086850;28;20048;-63
2021/08/31 02:36:54;;;;;;;17.17;8.63;;;14.20;99.90;;;;;;5086477;28;20044;-63
2021/08/31 02:39:20;;;;;;;16.73;10.75;;;14.20;99.90;;;;;;5086794;28;20104;-63
2021/08/31 02:41:45;;;;;;;19.88;10.95;;;14.20;99.90;;;;;;5087029;28;20044;-63
2021/08/31 02:44:11;;;;;;;16.98;10.63;;;14.10;99.90;;;;;;5084036;28;20039;-63
2021/08/31 02:46:37;;;;;;;18.10;10.52;;;14.10;99.90;;;;;;5085473;28;20040;-63
2021/08/31 02:49:03;;;;;;;18.92;9.93;;;14.10;99.90;;;;;;5088694;28;20046;-63
2021/08/31 02:51:28;;;;;;;17.08;10.18;;;14.10;99.90;;;;;;5087879;28;20551;-63
2021/08/31 02:53:54;;;;;;;21.88;10.55;;;14.00;99.90;;;;;;5086130;28;20118;-63
2021/08/31 02:56:20;;;;;;;17.85;9.75;;;14.00;99.90;;;;;;5087226;28;20511;-63
2021/08/31 02:58:45;;;;;;;20.40;10.07;;;14.00;99.90;;;;;;5084939;28;20056;-63
2021/08/31 03:03:55;;;;;;;21.83;11.32;;;14.00;99.90;;;;;;5086969;28;20424;-63
2021/08/31 03:06:21;;;;;;;20.27;11.10;;;14.00;99.90;;;;;;5084777;28;20080;-63
2021/08/31 03:08:47;;;;;;;20.48;9.90;;;13.90;99.90;;;;;;5086203;28;20032;-63
2021/08/31 03:11:13;;;;;;;18.40;11.30;;;13.90;99.90;;;;;;5085355;28;20111;-63
2021/08/31 03:13:38;;;;;;;21.65;11.07;;;14.00;99.90;;;;;;5085283;28;20492;-63
2021/08/31 03:16:04;;;;;;;20.27;11.02;;;14.00;99.90;;;;;;5073274;28;20053;-63
2021/08/31 03:18:30;;;;;;;19.27;11.65;;;14.00;99.90;;;;;;5083039;28;20175;-63
2021/08/31 03:20:55;;;;;;;19.65;13.13;;;14.00;99.90;;;;;;5084655;28;20064;-63
2021/08/31 03:23:21;;;;;;;17.58;11.50;;;14.10;99.90;;;;;;5068264;28;20044;-63
2021/08/31 03:25:47;;;;;;;19.20;12.23;;;14.10;99.90;;;;;;5085678;28;20072;-63
2021/08/31 03:28:13;;;;;;;21.50;13.43;;;14.20;99.90;;;;;;5085086;28;20041;-63
2021/08/31 03:30:39;;;;;;;24.88;13.55;;;14.20;99.90;;;;;;5085763;28;20048;-63
2021/08/31 03:33:05;;;;;;;22.83;12.80;;;14.20;99.90;;;;;;5067931;28;20044;-63
2021/08/31 03:35:31;;;;;;;20.63;12.93;;;14.20;99.90;;;;;;5084850;28;20509;-63
2021/08/31 03:37:56;;;;;;;24.77;13.27;;;14.20;99.90;;;;;;5083914;28;20128;-63
2021/08/31 03:40:22;;;;;;;20.27;13.15;;;14.20;99.90;;;;;;5084907;28;20123;-63
2021/08/31 03:42:48;;;;;;;24.58;14.23;;;14.20;99.90;;;;;;5084533;28;20067;-63
2021/08/31 03:45:14;;;;;;;19.52;13.30;;;14.30;99.90;;;;;;5086421;28;20036;-63
2021/08/31 03:47:40;;;;;;;20.20;13.35;;;14.30;99.90;;;;;;5084478;28;20047;-62
2021/08/31 03:50:07;;;;;;;24.75;13.77;;;14.20;99.90;;;;;;5085358;28;20049;-63
2021/08/31 03:52:32;;;;;;;20.00;12.63;;;14.30;99.90;;;;;;5085386;28;20040;-63
2021/08/31 03:54:58;;;;;;;17.35;11.95;;;14.30;99.90;;;;;;5085035;28;20079;-63
2021/08/31 03:57:24;;;;;;;17.75;11.38;;;14.30;99.90;;;;;;5083873;28;20146;-64
2021/08/31 03:59:50;;;;;;;26.10;13.70;;;14.30;99.90;;;;;;5084596;28;20040;-63
2021/08/31 04:02:16;;;;;;;22.77;12.75;;;14.30;99.90;;;;;;5083846;28;20076;-63
2021/08/31 04:04:42;;;;;;;20.95;13.18;;;14.40;99.90;;;;;;5085506;28;20033;-63
2021/08/31 04:07:08;;;;;;;22.58;13.05;;;14.40;99.90;;;;;;5085750;28;20412;-63
2021/08/31 04:09:34;;;;;;;24.98;13.55;;;14.40;99.90;;;;;;5071194;28;20115;-64
2021/08/31 04:11:59;;;;;;;22.52;14.40;;;14.40;99.90;;;;;;5084293;28;20048;-63
2021/08/31 04:14:25;;;;;;;19.55;12.40;;;14.50;99.90;;;;;;5080652;28;20036;-63
2021/08/31 04:16:51;;;;;;;25.20;14.02;;;14.50;99.90;;;;;;5083597;28;20059;-63
2021/08/31 04:19:16;;;;;;;23.17;14.77;;;14.50;99.90;;;;;;5084727;28;20068;-63
2021/08/31 04:21:42;;;;;;;20.15;13.70;;;14.50;99.90;;;;;;5084844;28;20064;-64
2021/08/31 04:24:08;;;;;;;24.55;13.75;;;14.60;99.90;;;;;;5084849;28;20033;-63
2021/08/31 04:26:34;;;;;;;25.35;15.10;;;14.60;99.90;;;;;;5082952;28;20048;-63
2021/08/31 04:29:00;;;;;;;24.33;16.52;;;14.60;99.90;;;;;;5083350;28;20048;-64
2021/08/31 04:31:26;;;;;;;24.73;14.27;;;14.60;99.90;;;;;;5080523;28;20087;-64
2021/08/31 04:33:52;;;;;;;23.77;15.43;;;14.60;99.90;;;;;;5083582;28;20033;-64
2021/08/31 04:36:18;;;;;;;24.95;15.10;;;14.60;99.90;;;;;;5083485;28;20512;-63
2021/08/31 04:38:44;;;;;;;21.58;14.68;;;14.60;99.90;;;;;;5079128;28;20051;-63
2021/08/31 04:41:11;;;;;;;19.75;14.15;;;14.60;99.90;;;;;;5055583;28;20060;-65
2021/08/31 04:43:37;;;;;;;27.20;17.13;;;14.50;99.90;;;;;;5082537;28;20066;-66
2021/08/31 04:46:03;;;;;;;25.65;15.73;;;14.60;99.90;;;;;;5082304;28;20052;-67
2021/08/31 04:48:29;;;;;;;21.42;14.73;;;14.60;99.90;;;;;;5081290;28;20048;-68
2021/08/31 04:50:55;;;;;;;19.35;14.20;;;14.60;99.90;;;;;;5089334;28;20052;-67
2021/08/31 04:53:22;;;;;;;27.90;15.00;;;14.60;99.90;;;;;;5049971;28;20074;-70
2021/08/31 04:55:49;;;;;;;24.95;15.63;;;14.60;99.90;;;;;;5092551;28;20143;-69
2021/08/31 04:58:14;;;;;;;25.90;15.57;;;14.70;99.90;;;;;;5084437;28;20055;-67
2021/08/31 05:00:40;;;;;;;19.85;14.35;;;14.60;99.90;;;;;;5076825;28;20051;-68
2021/08/31 05:03:06;;;;;;;25.88;16.83;;;14.60;99.90;;;;;;5076276;28;20070;-68
2021/08/31 05:05:32;;;;;;;26.83;14.88;;;14.60;99.90;;;;;;5062233;28;20054;-68
2021/08/31 05:07:57;;;;;;;24.30;17.95;;;14.60;99.90;;;;;;5073696;28;20102;-68
2021/08/31 05:10:23;;;;;;;24.98;15.75;;;14.50;99.90;;;;;;5068953;28;20070;-69
2021/08/31 05:12:49;;;;;;;27.05;16.10;;;14.60;99.90;;;;;;5070691;28;20045;-68
2021/08/31 05:15:15;;;;;;;30.20;20.42;;;14.60;99.90;;;;;;5067046;28;20447;-68
2021/08/31 05:17:41;;;;;;;31.70;18.05;;;14.60;99.90;;;;;;5079773;28;20280;-68
2021/08/31 05:20:07;;;;;;;25.60;20.50;;;14.60;99.90;;;;;;5079773;28;20102;-68
2021/08/31 05:22:33;;;;;;;28.73;23.27;;;14.60;99.90;;;;;;5085071;28;20039;-68
2021/08/31 05:25:03;;;;;;;25.67;18.17;;;14.70;99.90;;;;;;5074637;28;20051;-67
2021/08/31 05:27:29;;;;;;;31.67;24.05;;;14.70;99.90;;;;;;5078335;28;20359;-67
2021/08/31 05:29:54;;;;;;;26.38;23.63;;;14.70;99.90;;;;;;5049164;28;20040;-66
2021/08/31 05:32:21;;;;;;;30.70;24.65;;;14.80;99.90;;;;;;5080490;28;20445;-67
2021/08/31 05:34:48;;;;;;;28.33;24.80;;;14.80;99.90;;;;;;5072398;28;20047;-66
2021/08/31 05:37:13;;;;;;;67.93;62.95;;;14.90;99.90;;;;;;5070835;28;20179;-66
2021/08/31 05:39:39;;;;;;;82.90;77.32;;;14.90;99.90;;;;;;5072023;28;20089;-66
2021/08/31 05:42:07;;;;;;;83.32;77.53;;;14.90;99.90;;;;;;5068395;28;20072;-66
2021/08/31 05:44:35;;;;;;;82.63;76.82;;;15.00;99.90;;;;;;5065520;28;20158;-66
2021/08/31 05:47:02;;;;;;;73.80;68.03;;;15.00;99.90;;;;;;5074963;28;20128;-66
2021/08/31 05:49:29;;;;;;;83.32;77.72;;;15.00;99.90;;;;;;5056361;28;20048;-66
2021/08/31 05:51:55;;;;;;;88.18;82.03;;;15.10;99.90;;;;;;5077661;28;20552;-66
2021/08/31 05:54:21;;;;;;;81.97;76.40;;;15.20;99.90;;;;;;5074953;28;20120;-67
2021/08/31 05:56:48;;;;;;;107.00;99.93;;;15.20;99.90;;;;;;5091880;28;20583;-67
2021/08/31 05:59:14;;;;;;;102.70;95.88;;;15.30;99.90;;;;;;5062745;28;20101;-67
2021/08/31 06:01:40;;;;;;;92.28;86.05;;;15.30;99.90;;;;;;5087884;28;20045;-67
2021/08/31 06:04:06;;;;;;;103.28;97.18;;;15.40;99.90;;;;;;5058640;28;20535;-67
2021/08/31 06:06:32;;;;;;;96.35;90.70;;;15.50;99.90;;;;;;5070875;28;20041;-67
2021/08/31 06:08:58;;;;;;;94.22;87.95;;;15.50;99.90;;;;;;5056701;28;20102;-67
2021/08/31 06:11:24;;;;;;;94.43;88.20;;;15.50;99.90;;;;;;5077184;28;20048;-65
2021/08/31 06:13:50;;;;;;;103.60;97.63;;;15.50;99.90;;;;;;5070357;28;20055;-65
2021/08/31 06:16:15;;;;;;;98.43;92.47;;;15.60;99.90;;;;;;5089410;28;20166;-65
2021/08/31 06:18:41;;;;;;;102.72;96.70;;;15.60;99.90;;;;;;5076726;28;20044;-66
2021/08/31 06:21:07;;;;;;;110.07;104.05;;;15.70;99.90;;;;;;5086681;28;20066;-66
2021/08/31 06:23:33;;;;;;;101.10;94.72;;;15.70;99.90;;;;;;5070383;28;20096;-65
2021/08/31 06:25:59;;;;;;;113.15;106.68;;;15.70;99.90;;;;;;5066479;28;20052;-66
2021/08/31 06:28:25;;;;;;;118.43;111.70;;;15.70;99.90;;;;;;5064735;28;20064;-66
2021/08/31 06:30:51;;;;;;;99.35;93.57;;;15.80;99.90;;;;;;5088253;28;20055;-66
2021/08/31 06:33:17;;;;;;;115.60;108.80;;;15.90;99.90;;;;;;5078426;28;20098;-66
2021/08/31 06:35:43;;;;;;;127.78;120.75;;;15.90;99.90;;;;;;5066755;28;20103;-65
2021/08/31 06:38:09;;;;;;;104.15;97.88;;;16.00;99.90;;;;;;5060891;28;20082;-66
2021/08/31 06:40:34;;;;;;;119.57;112.75;;;16.00;99.90;;;;;;5059831;28;20217;-66
2021/08/31 06:43:00;;;;;;;128.20;121.05;;;16.10;99.90;;;;;;5074204;28;20083;-66
2021/08/31 06:45:26;;;;;;;124.38;117.35;;;16.10;99.90;;;;;;5078423;28;20237;-65
2021/08/31 06:47:52;;;;;;;106.95;100.88;;;16.20;99.90;;;;;;5079523;28;20040;-65
2021/08/31 06:50:17;;;;;;;125.38;118.85;;;16.30;99.90;;;;;;5069565;28;20127;-65
2021/08/31 06:52:45;;;;;;;119.00;112.45;;;16.30;99.90;;;;;;5075087;28;20095;-67
2021/08/31 06:55:11;;;;;;;116.32;110.00;;;16.30;99.90;;;;;;5076621;28;20081;-66
2021/08/31 06:57:37;;;;;;;130.32;123.20;;;16.40;99.90;;;;;;5069041;28;20282;-65
2021/08/31 07:00:05;;;;;;;136.57;129.25;;;16.40;99.90;;;;;;5074991;28;20043;-65
2021/08/31 07:02:30;;;;;;;135.70;128.73;;;16.50;99.90;;;;;;5086755;28;20054;-65
2021/08/31 07:04:57;;;;;;;120.53;114.18;;;16.60;99.90;;;;;;5067407;28;20139;-66
2021/08/31 07:07:23;;;;;;;137.30;130.35;;;16.60;99.90;;;;;;5103470;28;20468;-65
2021/08/31 07:09:49;;;;;;;135.10;127.57;;;16.70;99.90;;;;;;5073456;28;20092;-65
2021/08/31 07:12:14;;;;;;;132.68;125.80;;;16.80;99.90;;;;;;5088969;28;20063;-65
2021/08/31 07:14:40;;;;;;;128.93;121.90;;;16.90;99.90;;;;;;5080990;28;20039;-65
2021/08/31 07:17:06;;;;;;;135.13;127.90;;;17.00;99.90;;;;;;5095851;28;20507;-66
2021/08/31 07:19:32;;;;;;;144.23;136.80;;;17.00;99.90;;;;;;5085952;28;20332;-65
2021/08/31 07:21:58;;;;;;;155.80;147.02;;;17.10;99.90;;;;;;5096342;28;20139;-65
2021/08/31 07:24:24;;;;;;;144.38;137.32;;;17.30;99.90;;;;;;5098271;28;20042;-65
2021/08/31 07:26:50;;;;;;;138.50;131.63;;;17.30;99.90;;;;;;5084003;28;20075;-66
2021/08/31 07:29:16;;;;;;;134.63;127.90;;;17.40;99.90;;;;;;5077680;28;20075;-65
2021/08/31 07:31:42;;;;;;;113.82;107.38;;;17.30;99.90;;;;;;5064456;28;20048;-65
2021/08/31 07:34:07;;;;;;;128.60;121.97;;;17.30;99.90;;;;;;5090319;28;20095;-65
2021/08/31 07:36:33;;;;;;;135.18;128.43;;;17.40;99.90;;;;;;5066349;28;20048;-65
2021/08/31 07:38:59;;;;;;;121.07;114.65;;;17.40;99.90;;;;;;5064786;28;20045;-65
2021/08/31 07:41:25;;;;;;;128.45;121.88;;;17.50;99.90;;;;;;5072511;28;20048;-65
2021/08/31 07:43:51;;;;;;;119.35;113.25;;;17.50;99.90;;;;;;5074445;28;20056;-66
2021/08/31 07:46:19;;;;;;;115.85;109.97;;;17.60;99.90;;;;;;5053167;28;20117;-66
2021/08/31 07:48:45;;;;;;;108.07;102.57;;;17.50;99.90;;;;;;5058385;28;20062;-65
2021/08/31 07:51:10;;;;;;;125.55;119.30;;;17.50;99.90;;;;;;5062828;28;20131;-67
2021/08/31 07:53:37;;;;;;;106.60;101.43;;;17.60;99.90;;;;;;5076566;28;20071;-65
2021/08/31 07:56:03;;;;;;;110.93;105.45;;;17.60;99.90;;;;;;5068361;28;20054;-66
2021/08/31 07:58:29;;;;;;;107.05;101.80;;;17.60;99.90;;;;;;5069063;28;20130;-66
2021/08/31 08:00:55;;;;;;;112.75;106.82;;;17.60;99.90;;;;;;5054688;28;20084;-66
2021/08/31 08:03:21;;;;;;;120.05;114.07;;;17.60;99.90;;;;;;5070988;28;20056;-66
2021/08/31 08:05:47;;;;;;;106.20;100.93;;;17.50;99.90;;;;;;5049568;28;20040;-66
2021/08/31 08:08:12;;;;;;;116.38;110.50;;;17.60;99.90;;;;;;5056139;28;20535;-66
2021/08/31 08:10:38;;;;;;;117.72;112.13;;;17.70;99.90;;;;;;5048523;28;20044;-66
2021/08/31 08:13:04;;;;;;;114.97;108.70;;;17.80;99.90;;;;;;5067227;28;20174;-65
2021/08/31 08:15:30;;;;;;;107.97;102.50;;;18.00;99.90;;;;;;5048395;28;20147;-65
2021/08/31 08:17:56;;;;;;;119.70;113.40;;;18.10;99.90;;;;;;5054850;28;20056;-65
2021/08/31 08:20:23;;;;;;;116.70;111.25;;;18.20;99.90;;;;;;5058464;28;20551;-65
2021/08/31 08:22:49;;;;;;;117.40;111.22;;;18.20;99.90;;;;;;5078473;28;20587;-65
2021/08/31 08:25:14;;;;;;;107.78;102.32;;;18.20;99.90;;;;;;5054533;28;20106;-65
2021/08/31 08:27:41;;;;;;;109.32;104.07;;;18.20;99.90;;;;;;5072217;28;20044;-65
2021/08/31 08:30:08;;;;;;;103.40;98.22;;;18.10;99.90;;;;;;5062261;28;20083;-65
2021/08/31 08:32:35;;;;;;;108.00;102.72;;;18.00;99.90;;;;;;5068414;28;20044;-65
2021/08/31 08:35:00;;;;;;;112.13;106.65;;;18.00;99.90;;;;;;5066647;28;20090;-65
2021/08/31 08:37:26;;;;;;;106.50;101.25;;;18.00;99.90;;;;;;5051436;28;20107;-65
2021/08/31 08:39:53;;;;;;;101.63;96.82;;;17.90;99.90;;;;;;5067675;28;20268;-65
2021/08/31 08:42:19;;;;;;;104.25;99.18;;;17.90;99.90;;;;;;5044943;28;20060;-65
2021/08/31 08:44:44;;;;;;;98.57;93.43;;;17.90;99.90;;;;;;5063451;28;20040;-66
2021/08/31 08:47:11;;;;;;;119.85;113.85;;;18.00;99.90;;;;;;5063479;28;20084;-65
2021/08/31 08:49:37;;;;;;;118.60;112.75;;;18.10;99.90;;;;;;5072283;28;20040;-65
2021/08/31 08:52:03;;;;;;;122.50;116.32;;;18.20;99.90;;;;;;5053876;28;20044;-65
2021/08/31 08:54:29;;;;;;;113.80;108.45;;;18.30;99.90;;;;;;5075077;28;20052;-65
2021/08/31 08:56:56;;;;;;;98.75;93.82;;;18.40;99.90;;;;;;5055172;28;20136;-65
2021/08/31 08:59:22;;;;;;;111.38;105.90;;;18.40;99.90;;;;;;5057779;28;20059;-65
2021/08/31 09:01:51;;;;;;;113.95;108.63;;;18.40;99.90;;;;;;5057420;28;20592;-65
2021/08/31 09:04:18;;;;;;;91.28;86.50;;;18.60;99.90;;;;;;5073302;28;20048;-66
2021/08/31 09:06:45;;;;;;;114.72;109.43;;;18.70;99.90;;;;;;5068927;28;20059;-66
2021/08/31 09:09:12;;;;;;;110.90;105.10;;;18.90;99.90;;;;;;5040878;28;20067;-65
2021/08/31 09:11:47;;;;;;;112.28;106.95;;;19.00;99.90;;;;;;5046745;28;20045;-65
2021/08/31 09:14:30;;;;;;;99.93;94.82;;;19.10;99.90;;;;;;5071923;28;20056;-65
2021/08/31 09:16:59;;;;;;;101.93;97.10;;;19.10;99.90;;;;;;5060467;28;20355;-66
2021/08/31 09:19:40;;;;;;;110.63;105.50;;;19.10;99.90;;;;;;5053309;28;20044;-66
2021/08/31 09:22:22;;;;;;;102.68;97.68;;;19.20;99.90;;;;;;5068950;28;20144;-65
2021/08/31 09:25:04;;;;;;;106.10;100.85;;;19.30;99.90;;;;;;5056445;28;20440;-66
2021/08/31 09:27:41;;;;;;;137.38;130.60;;;19.40;99.90;;;;;;5063991;28;20598;-65
2021/08/31 09:30:30;;;;;;;130.68;124.03;;;19.60;99.90;;;;;;5074370;27;20053;-66
2021/08/31 09:33:17;;;;;;;92.32;87.65;;;19.60;99.90;;;;;;5103348;28;20062;-66
2021/08/31 09:35:58;;;;;;;105.40;99.93;;;19.60;99.90;;;;;;5086354;28;20047;-65
2021/08/31 09:38:24;;;;;;;99.68;94.63;;;19.70;99.90;;;;;;5097471;28;20048;-66
2021/08/31 09:40:53;;;;;;;93.35;88.63;;;19.60;99.90;;;;;;5071548;28;20036;-66
2021/08/31 09:43:22;;;;;;;104.10;99.07;;;19.50;99.90;;;;;;5066367;28;20114;-65
2021/08/31 09:45:50;;;;;;;104.45;99.40;;;19.60;99.90;;;;;;5071573;28;20160;-65
2021/08/31 09:48:18;;;;;;;95.72;90.85;;;19.50;99.90;;;;;;5066557;28;20061;-66
2021/08/31 09:50:46;;;;;;;99.70;94.53;;;19.40;99.90;;;;;;5065658;28;20056;-65
2021/08/31 09:53:27;;;;;;;97.72;92.75;;;19.30;99.90;;;;;;5085956;28;20056;-66
2021/08/31 09:56:02;;;;;;;77.80;73.65;;;19.40;99.90;;;;;;5067353;28;20508;-66
2021/08/31 09:58:29;;;;;;;90.20;85.75;;;19.40;99.90;;;;;;5100325;28;20070;-65
2021/08/31 10:00:55;;;;;;;96.78;91.70;;;19.40;99.90;;;;;;5112913;27;20048;-66
2021/08/31 10:03:23;;;;;;;85.13;80.72;;;19.30;99.90;;;;;;5097160;28;20044;-65
2021/08/31 10:05:51;;;;;;;86.45;82.18;;;19.30;99.90;;;;;;5113019;27;20047;-65
2021/08/31 10:08:19;;;;;;;82.47;78.20;;;19.40;99.90;;;;;;5098998;28;20055;-65
2021/08/31 10:10:46;;;;;;;95.10;90.53;;;19.50;99.90;;;;;;5104016;28;20048;-65
2021/08/31 10:13:15;;;;;;;95.78;91.07;;;19.50;99.90;;;;;;5090104;28;20359;-66
2021/08/31 10:15:45;;;;;;;93.68;89.00;;;19.60;99.90;;;;;;5103984;27;20056;-66
2021/08/31 10:18:12;;;;;;;81.03;76.85;;;19.70;99.90;;;;;;5088354;28;20112;-65
2021/08/31 10:20:44;;;;;;;92.05;87.20;;;19.80;99.90;;;;;;5097934;27;20066;-65
2021/08/31 10:23:12;;;;;;;97.90;93.10;;;19.80;99.90;;;;;;5117879;27;20056;-67
2021/08/31 10:25:37;;;;;;;89.63;84.80;;;19.80;99.90;;;;;;5097452;27;20162;-66
2021/08/31 10:28:23;;;;;;;80.63;76.75;;;19.90;99.90;;;;;;5103906;28;20063;-66
2021/08/31 10:30:50;;;;;;;77.82;73.78;;;19.90;99.90;;;;;;5098895;27;20062;-66
2021/08/31 10:33:42;;;;;;;94.55;90.03;;;19.90;99.90;;;;;;5088095;28;20044;-66
2021/08/31 10:36:10;;;;;;;96.18;91.25;;;20.20;99.90;;;;;;5100503;27;20051;-66
2021/08/31 10:38:46;;;;;;;87.35;82.90;;;20.30;99.90;;;;;;5113143;27;20537;-66
2021/08/31 10:41:31;;;;;;;72.35;68.65;;;20.40;99.90;;;;;;5083982;27;20080;-66
2021/08/31 10:43:57;;;;;;;77.60;73.88;;;20.20;99.90;;;;;;5084114;28;20044;-65
2021/08/31 10:46:23;;;;;;;72.20;68.65;;;20.20;99.90;;;;;;5067492;28;20251;-65
2021/08/31 10:49:03;;;;;;;81.72;77.72;;;20.10;99.90;;;;;;5074028;28;20075;-65
2021/08/31 10:51:28;;;;;;;84.60;79.90;;;20.30;99.90;;;;;;5060717;28;20087;-65
2021/08/31 10:53:54;;;;;;;80.05;75.72;;;20.40;99.90;;;;;;5063393;28;20291;-66
2021/08/31 10:56:25;;;;;;;74.07;70.22;;;20.60;99.90;;;;;;5073429;28;20136;-66
2021/08/31 10:58:58;;;;;;;69.68;65.97;;;20.50;99.90;;;;;;5073437;28;20064;-66
2021/08/31 11:01:27;;;;;;;81.20;76.80;;;20.30;99.90;;;;;;5049416;28;20107;-66
2021/08/31 11:03:55;;;;;;;73.88;70.13;;;20.30;99.90;;;;;;5063895;28;20045;-66
2021/08/31 11:06:24;;;;;;;75.32;71.03;;;20.40;99.90;;;;;;5059665;28;20173;-66
2021/08/31 11:09:11;;;;;;;86.38;81.93;;;20.50;99.90;;;;;;5082685;28;20277;-66
2021/08/31 11:11:38;;;;;;;83.18;78.47;;;20.50;99.90;;;;;;5089115;27;20047;-66
2021/08/31 11:14:05;;;;;;;83.10;78.68;;;20.70;99.90;;;;;;5102891;27;20057;-66
2021/08/31 11:16:36;;;;;;;82.03;77.80;;;20.70;99.90;;;;;;5089108;28;20109;-67
2021/08/31 11:19:03;;;;;;;94.45;89.68;;;20.80;99.90;;;;;;5101448;28;20423;-67
2021/08/31 11:21:29;;;;;;;100.97;95.70;;;20.90;99.90;;;;;;5096666;28;20083;-67
2021/08/31 11:24:07;;;;;;;92.07;87.18;;;20.90;99.90;;;;;;5104362;28;20411;-66
2021/08/31 11:26:33;;;;;;;89.32;84.95;;;21.10;99.90;;;;;;5097840;28;20050;-67
2021/08/31 11:29:06;;;;;;;84.32;79.82;;;21.20;99.90;;;;;;5102208;28;20044;-66
2021/08/31 11:31:32;;;;;;;66.57;63.22;;;21.40;99.90;;;;;;5097226;28;20063;-67
2021/08/31 11:33:58;;;;;;;72.13;68.28;;;21.30;99.90;;;;;;5088951;28;20044;-66
2021/08/31 11:36:28;;;;;;;73.25;69.43;;;21.30;99.90;;;;;;5096109;28;20067;-67
2021/08/31 11:39:04;;;;;;;71.55;67.50;;;21.30;99.90;;;;;;5084188;28;20048;-66
2021/08/31 11:41:34;;;;;;;70.35;66.45;;;21.40;99.90;;;;;;5057244;28;20052;-66
2021/08/31 11:44:10;;;;;;;66.75;63.08;;;21.40;99.90;;;;;;5082257;28;20049;-66
2021/08/31 11:46:45;;;;;;;67.75;64.13;;;21.50;99.90;;;;;;5071701;28;20118;-66
2021/08/31 11:49:20;;;;;;;79.63;75.45;;;21.60;99.90;;;;;;5096787;28;20083;-66
2021/08/31 11:51:54;;;;;;;72.22;68.43;;;21.50;99.90;;;;;;5074398;28;20613;-66
2021/08/31 11:54:22;;;;;;;70.75;66.72;;;21.40;99.90;;;;;;5094864;28;20266;-70
2021/08/31 11:56:56;;;;;;;77.10;72.82;;;21.30;99.90;;;;;;5079398;28;20035;-66
2021/08/31 11:59:43;;;;;;;76.70;72.22;;;21.10;99.90;;;;;;5091412;28;20091;-66
2021/08/31 12:02:41;;;;;;;60.38;57.10;;;21.20;99.90;;;;;;5085385;28;20149;-65
2021/08/31 12:05:08;;;;;;;54.40;51.17;;;21.20;99.90;;;;;;5058556;28;20546;-65
2021/08/31 12:07:37;;;;;;;66.50;62.65;;;21.20;99.90;;;;;;5034910;28;20632;-66
2021/08/31 12:10:10;;;;;;;56.40;52.90;;;20.90;99.90;;;;;;5070383;28;20057;-65
2021/08/31 12:12:38;;;;;;;76.25;72.13;;;20.80;99.90;;;;;;5042531;28;20056;-66
2021/08/31 12:15:06;;;;;;;46.08;43.45;;;21.00;99.90;;;;;;5014255;28;20140;-65
2021/08/31 12:17:37;;;;;;;65.43;61.80;;;21.00;99.90;;;;;;5052589;28;20215;-66
2021/08/31 12:20:25;;;;;;;78.07;74.15;;;21.00;99.90;;;;;;5036254;28;20053;-65
2021/08/31 12:22:56;;;;;;;53.53;50.60;;;21.20;99.90;;;;;;5013836;28;20405;-65
2021/08/31 12:25:22;;;;;;;70.03;66.22;;;21.30;99.90;;;;;;5036724;28;20225;-65
2021/08/31 12:27:55;;;;;;;71.40;67.80;;;21.40;99.90;;;;;;5011510;28;20708;-65